Terminal Aerodrome Forecast
Issued by NWS

Home | Current Version | Previous Version | Text Only | Print | Product List | Glossary On
Versions: 1 2 3 4 5 6 7 8 9 10 11 12 13 14 15 16 17 18 19 20 21 22 23 24 25 26
000
FTUS44 KLIX 231100
TAFHUM
TAF
KHUM 231131Z 2312/2412 33005KT P6SM FEW050
      TEMPO 2312/2314 3SM BR
     FM240000 21006KT P6SM SCT050
     FM240200 00000KT P6SM FEW050=

USA.gov is the U.S. government's official web portal to all federal, state and local government web resources and services.